Lexington, Indiana
Current Conditions -  °F | °C
As of 8:53 PM on Monday 24 Nov 2014 (Local Time) from KLOU Reporting Station
Broken Clouds Broken Clouds  
Wind Chill:   Ceiling: 6500
Heat Index:   Visibility: 10mi
Dew Point:   Wind: 13mph
Humidity: 56%   Direction: 240°WSW
Pressure: 29.93"   Gusts: NA
Location:  38.65°N, 85.63°W
Report Text: KLOU 250153Z 24011KT 10SM BKN065 08/00 A2993 RMK AO2 SLP133 T00830000
Loading
Personal Weather Stations






























Interactive Weather Map New forecast layout! Learn more

10-Day Weather Forecast

Advertisements
Track Severe Weather on mobile